< < Back
Terminal Aerodrome Forecast


Current Version              Previous Versions:   1  2  3  4  5  6  7  8  9  

Terminal Aerodrome Forecast

705
FTUS44 KMOB 161100
TAFMOB
TAF
KMOB 161132Z 1612/1712 34003KT P6SM SCT040 BKN200
     FM161700 32006KT P6SM VCTS SCT040CB BKN200
      TEMPO 1619/1623 3SM TSRA BKN020CB
     FM170000 VRB03KT P6SM SCT040 BKN150=



Latest METAR

219
SAUS80 KWBC 170300 RRA
MTRMOB
METAR KMOB 170256Z 28004KT 8SM -RA SCT110 22/22 A3004 RMK AO2 TSE52
SLP167 P0001 60025 T02170217 50010


USA.gov is the U.S. government's official web portal to all federal, state and local government web resources and services.